Time;durP1;ratioP1;P1;durP2;ratioP2;P2;SDS_P1;SDS_P2;PMS_P1;PMS_P2;Temp;Humidity;BMP_temperature;BMP_pressure;BME280_temperature;BME280_humidity;BME280_pressure;Samples;Min_cycle;Max_cycle;Signal;HPM_P1;HPM_P2
2023/06/04 00:00:26;;;;;;;7.75;7.07;;;20.90;42.20;;;;;;5038608;28;20204;-86
2023/06/04 00:02:51;;;;;;;7.55;7.05;;;20.70;41.80;;;;;;5039655;28;20661;-87
2023/06/04 00:05:17;;;;;;;11.05;7.95;;;20.80;42.10;;;;;;5037605;28;20220;-88
2023/06/04 00:07:43;;;;;;;7.75;7.15;;;20.80;43.30;;;;;;5034555;28;20209;-87
2023/06/04 00:10:09;;;;;;;7.55;6.80;;;20.70;42.60;;;;;;5024845;28;20280;-91
2023/06/04 00:12:35;;;;;;;7.50;6.93;;;20.60;43.30;;;;;;5038310;28;20183;-87
2023/06/04 00:15:01;;;;;;;7.90;7.07;;;20.50;42.50;;;;;;5038248;28;20195;-89
2023/06/04 00:17:27;;;;;;;7.70;7.07;;;20.50;43.20;;;;;;5038771;28;20208;-88
2023/06/04 00:19:52;;;;;;;8.40;7.60;;;20.40;43.70;;;;;;5020648;28;20740;-86
2023/06/04 00:22:18;;;;;;;7.22;6.53;;;20.40;43.20;;;;;;5037179;28;20206;-88
2023/06/04 00:24:44;;;;;;;7.50;6.85;;;20.20;42.90;;;;;;5037614;28;20278;-88
2023/06/04 00:27:09;;;;;;;7.20;6.65;;;20.20;43.00;;;;;;5019245;28;20207;-88
2023/06/04 00:29:35;;;;;;;7.03;6.40;;;20.10;43.00;;;;;;5037738;28;20261;-88
2023/06/04 00:32:03;;;;;;;6.80;6.30;;;20.20;42.70;;;;;;5035398;28;20331;-86
2023/06/04 00:34:29;;;;;;;6.35;5.75;;;20.10;42.70;;;;;;5036090;28;20181;-87
2023/06/04 00:36:54;;;;;;;7.63;7.03;;;20.10;42.50;;;;;;5036239;28;20209;-89
2023/06/04 00:39:20;;;;;;;7.05;6.18;;;20.10;42.50;;;;;;5035532;28;20182;-88
2023/06/04 00:41:46;;;;;;;7.55;6.82;;;20.10;42.70;;;;;;5036357;28;20182;-87
2023/06/04 00:44:12;;;;;;;6.93;6.43;;;20.10;43.10;;;;;;5037977;28;20249;-86
2023/06/04 00:46:37;;;;;;;6.75;6.35;;;20.00;42.60;;;;;;5038161;28;20714;-90
2023/06/04 00:49:05;;;;;;;6.80;6.18;;;19.90;42.50;;;;;;5037927;28;20178;-88
2023/06/04 00:51:31;;;;;;;6.95;6.30;;;19.90;43.20;;;;;;5039662;28;20232;-87
2023/06/04 00:53:59;;;;;;;6.65;6.25;;;20.00;42.30;;;;;;5037767;28;20188;-87
2023/06/04 00:56:24;;;;;;;6.28;5.78;;;20.00;42.30;;;;;;5037338;28;20718;-87
2023/06/04 00:58:52;;;;;;;6.65;6.10;;;19.90;42.10;;;;;;5038595;28;20350;-88
2023/06/04 01:01:18;;;;;;;6.68;6.10;;;20.10;42.10;;;;;;5036805;28;20183;-88
2023/06/04 01:03:49;;;;;;;6.95;6.00;;;19.80;41.90;;;;;;5036943;28;20189;-88
2023/06/04 01:06:21;;;;;;;6.75;6.25;;;19.80;42.20;;;;;;5037706;28;20206;-88
2023/06/04 01:08:54;;;;;;;6.68;6.07;;;19.70;42.10;;;;;;5019644;28;20192;-87
2023/06/04 01:11:31;;;;;;;6.32;5.93;;;19.70;41.90;;;;;;5037019;28;20181;-87
2023/06/04 01:13:56;;;;;;;6.53;5.90;;;19.60;42.30;;;;;;5037349;28;20171;-87
2023/06/04 01:16:22;;;;;;;6.00;5.50;;;19.50;42.20;;;;;;5039364;28;20208;-88
2023/06/04 01:18:51;;;;;;;6.15;5.65;;;19.50;42.20;;;;;;5051257;28;20262;-90
2023/06/04 01:21:18;;;;;;;6.57;6.07;;;19.60;42.00;;;;;;5051239;28;20424;-88
2023/06/04 01:23:58;;;;;;;6.13;5.53;;;19.50;41.40;;;;;;5045491;28;20175;-89
2023/06/04 01:26:29;;;;;;;6.72;6.07;;;19.40;41.10;;;;;;5029792;28;20189;-91
2023/06/04 01:28:56;;;;;;;6.35;5.85;;;19.20;41.40;;;;;;5051262;28;20195;-90
2023/06/04 01:31:22;;;;;;;6.18;5.63;;;19.20;41.50;;;;;;5017669;28;20264;-88
2023/06/04 01:33:58;;;;;;;5.85;5.35;;;19.20;41.50;;;;;;5038697;28;20185;-89
2023/06/04 01:36:24;;;;;;;5.78;5.28;;;19.00;41.40;;;;;;5037292;28;20578;-88
2023/06/04 01:38:50;;;;;;;6.30;5.80;;;18.90;41.90;;;;;;5037335;28;20685;-89
2023/06/04 01:41:17;;;;;;;5.78;5.28;;;18.90;41.50;;;;;;5037290;28;20184;-89
2023/06/04 01:43:42;;;;;;;5.75;5.25;;;18.80;41.40;;;;;;5039885;28;20187;-89
2023/06/04 01:46:08;;;;;;;5.35;4.85;;;18.70;41.70;;;;;;5038991;28;20420;-87
2023/06/04 01:48:34;;;;;;;5.30;4.90;;;18.70;41.60;;;;;;5037817;28;20227;-88
2023/06/04 01:51:00;;;;;;;6.53;5.00;;;18.70;41.40;;;;;;5036625;28;20191;-88
2023/06/04 01:53:26;;;;;;;5.28;4.88;;;18.60;41.60;;;;;;5036765;28;20185;-86
2023/06/04 01:55:52;;;;;;;5.68;5.18;;;18.50;41.50;;;;;;5036150;28;20180;-87
2023/06/04 01:58:22;;;;;;;5.28;4.88;;;18.60;41.50;;;;;;5036294;28;20177;-88
2023/06/04 02:00:49;;;;;;;5.38;4.97;;;18.60;41.10;;;;;;5037241;28;20180;-88
2023/06/04 02:03:15;;;;;;;5.28;4.88;;;18.60;40.90;;;;;;5040220;28;20708;-88
2023/06/04 02:05:44;;;;;;;7.82;4.93;;;18.70;40.70;;;;;;5021694;28;20200;-88
2023/06/04 02:08:11;;;;;;;5.32;4.82;;;18.70;40.60;;;;;;5039753;28;20205;-87
2023/06/04 02:10:36;;;;;;;5.10;4.70;;;18.70;40.70;;;;;;5039626;28;20184;-88
2023/06/04 02:13:03;;;;;;;5.10;4.80;;;18.70;40.10;;;;;;5039782;28;20170;-89
2023/06/04 02:15:30;;;;;;;5.57;5.10;;;18.70;40.30;;;;;;5041255;28;20184;-87
2023/06/04 02:18:16;;;;;;;5.13;4.65;;;18.70;40.30;;;;;;5043391;28;20214;-88
2023/06/04 02:20:45;;;;;;;5.60;5.10;;;18.40;40.50;;;;;;5041199;28;20184;-90
2023/06/04 02:23:12;;;;;;;7.75;4.50;;;18.40;40.90;;;;;;5042200;28;20244;-88
2023/06/04 02:25:37;;;;;;;6.32;5.03;;;18.50;40.50;;;;;;5042680;28;20181;-88
2023/06/04 02:28:03;;;;;;;4.95;4.55;;;18.40;41.50;;;;;;5042631;28;20204;-88
2023/06/04 02:30:29;;;;;;;5.30;4.80;;;18.40;40.70;;;;;;5041904;28;20180;-86
2023/06/04 02:32:54;;;;;;;7.35;4.97;;;18.30;40.50;;;;;;5043272;28;20180;-87
2023/06/04 02:35:22;;;;;;;4.90;4.50;;;18.10;41.10;;;;;;5044201;28;20183;-88
2023/06/04 02:37:49;;;;;;;5.93;4.93;;;18.10;41.30;;;;;;5026131;28;20208;-88
2023/06/04 02:40:14;;;;;;;5.68;4.45;;;18.10;41.20;;;;;;5043217;28;20276;-86
2023/06/04 02:42:40;;;;;;;8.45;4.43;;;18.10;40.90;;;;;;5042463;28;20271;-86
2023/06/04 02:45:06;;;;;;;4.40;4.10;;;18.00;41.00;;;;;;5043772;28;20183;-89
2023/06/04 02:47:32;;;;;;;4.30;4.00;;;18.00;41.10;;;;;;5042581;28;20607;-87
2023/06/04 02:49:57;;;;;;;5.10;4.60;;;17.90;41.00;;;;;;5044066;28;20176;-89
2023/06/04 02:52:25;;;;;;;5.03;4.27;;;17.90;41.00;;;;;;5042461;28;20251;-88
2023/06/04 02:54:51;;;;;;;4.72;4.32;;;17.80;40.90;;;;;;5043517;28;20246;-88
2023/06/04 02:57:16;;;;;;;4.35;4.05;;;17.90;40.90;;;;;;5042803;28;20210;-86
2023/06/04 02:59:42;;;;;;;4.57;4.18;;;17.90;40.80;;;;;;5043571;28;20191;-87
2023/06/04 03:02:08;;;;;;;4.50;4.20;;;18.00;40.80;;;;;;5024518;28;20202;-89
2023/06/04 03:04:34;;;;;;;5.38;4.10;;;18.00;41.90;;;;;;5042552;28;20190;-89
2023/06/04 03:07:03;;;;;;;4.88;4.47;;;18.00;40.60;;;;;;5042239;28;20259;-89
2023/06/04 03:09:33;;;;;;;4.30;4.00;;;18.10;40.40;;;;;;5024831;28;20190;-86
2023/06/04 03:12:03;;;;;;;4.25;3.95;;;18.00;40.20;;;;;;5040898;28;20533;-87
2023/06/04 03:14:32;;;;;;;5.13;4.68;;;18.10;40.50;;;;;;5043318;28;20260;-86
2023/06/04 03:17:07;;;;;;;4.32;3.92;;;18.10;40.20;;;;;;5042204;28;20199;-87
2023/06/04 03:19:37;;;;;;;4.47;4.18;;;18.00;40.50;;;;;;5041732;28;20198;-86
2023/06/04 03:22:05;;;;;;;4.75;4.13;;;18.00;40.70;;;;;;5040754;28;20184;-89
2023/06/04 03:24:41;;;;;;;4.57;4.25;;;18.00;40.50;;;;;;5023248;28;20205;-88
2023/06/04 03:27:08;;;;;;;4.60;4.20;;;17.90;40.70;;;;;;5040228;28;20330;-88
2023/06/04 03:29:34;;;;;;;4.40;4.10;;;17.80;40.90;;;;;;5040357;28;20441;-87
2023/06/04 03:32:01;;;;;;;4.65;4.25;;;17.70;41.40;;;;;;5041219;28;20648;-88
2023/06/04 03:34:27;;;;;;;4.22;3.92;;;17.60;41.50;;;;;;5040693;28;20178;-89
2023/06/04 03:36:54;;;;;;;4.37;4.07;;;17.50;42.00;;;;;;5041027;28;20206;-88
2023/06/04 03:39:20;;;;;;;4.03;3.73;;;17.50;42.10;;;;;;5040923;28;20190;-87
2023/06/04 03:41:45;;;;;;;4.13;3.83;;;17.50;42.40;;;;;;5040627;28;20757;-88
2023/06/04 03:44:17;;;;;;;4.33;4.03;;;17.40;42.70;;;;;;5040895;28;20184;-88
2023/06/04 03:46:44;;;;;;;4.47;4.17;;;17.40;42.80;;;;;;5023943;28;20204;-87
2023/06/04 03:49:10;;;;;;;3.97;3.67;;;17.50;42.70;;;;;;5041263;28;20181;-87
2023/06/04 03:51:37;;;;;;;3.70;3.50;;;17.50;42.70;;;;;;5041580;28;20168;-87
2023/06/04 03:54:03;;;;;;;4.72;4.28;;;17.50;42.50;;;;;;5023389;28;20177;-88
2023/06/04 03:56:29;;;;;;;4.60;4.20;;;17.50;42.70;;;;;;5036579;28;20555;-88
2023/06/04 03:58:55;;;;;;;4.40;4.00;;;17.40;42.70;;;;;;5021566;28;20177;-87
2023/06/04 04:01:21;;;;;;;4.30;3.90;;;17.40;43.00;;;;;;5021920;28;20175;-88
2023/06/04 04:03:49;;;;;;;4.47;3.80;;;17.30;43.60;;;;;;5003987;28;20612;-88
2023/06/04 04:06:16;;;;;;;4.10;3.80;;;17.30;43.90;;;;;;5025801;28;20209;-87
2023/06/04 04:08:44;;;;;;;4.20;3.80;;;17.20;44.10;;;;;;5029945;28;20257;-88
2023/06/04 04:11:11;;;;;;;4.20;3.77;;;17.10;44.40;;;;;;5020876;28;20189;-89
2023/06/04 04:13:37;;;;;;;6.23;4.03;;;17.10;45.20;;;;;;5020528;28;20216;-88
2023/06/04 04:16:03;;;;;;;4.67;3.60;;;17.20;44.40;;;;;;5028985;28;20214;-87
2023/06/04 04:18:31;;;;;;;3.83;3.53;;;17.20;44.20;;;;;;5038361;28;20239;-87
2023/06/04 04:20:57;;;;;;;3.93;3.60;;;17.10;44.40;;;;;;5021511;28;20192;-87
2023/06/04 04:23:23;;;;;;;3.90;3.50;;;17.10;44.50;;;;;;5039565;28;20573;-89
2023/06/04 04:25:49;;;;;;;3.90;3.60;;;17.10;44.50;;;;;;5038789;28;20193;-89
2023/06/04 04:28:17;;;;;;;5.33;3.73;;;17.10;44.90;;;;;;5039172;28;20202;-89
2023/06/04 04:30:44;;;;;;;3.80;3.53;;;16.90;45.40;;;;;;5019834;28;20221;-88
2023/06/04 04:33:10;;;;;;;4.30;3.90;;;16.90;45.70;;;;;;5037880;28;20244;-89
2023/06/04 04:35:36;;;;;;;3.63;3.33;;;16.90;45.70;;;;;;5020973;28;20187;-88
2023/06/04 04:38:03;;;;;;;4.93;3.67;;;16.90;45.70;;;;;;5042814;28;20247;-88
2023/06/04 04:40:30;;;;;;;4.10;3.80;;;16.80;45.60;;;;;;5021251;28;20262;-88
2023/06/04 04:42:56;;;;;;;4.87;3.43;;;16.80;45.40;;;;;;5039750;28;20190;-87
2023/06/04 04:45:21;;;;;;;3.50;3.20;;;16.90;45.40;;;;;;5041220;28;20184;-87
2023/06/04 04:47:47;;;;;;;3.90;3.50;;;17.00;44.80;;;;;;5041198;28;20210;-88
2023/06/04 04:50:13;;;;;;;4.80;3.97;;;16.90;45.20;;;;;;5039908;28;20190;-87
2023/06/04 04:52:39;;;;;;;4.17;3.70;;;16.80;44.50;;;;;;5038500;28;20189;-88
2023/06/04 04:55:05;;;;;;;3.90;3.60;;;16.80;45.00;;;;;;5039012;28;20180;-89
2023/06/04 04:57:32;;;;;;;5.57;3.50;;;16.80;44.70;;;;;;5037940;28;20210;-88
2023/06/04 04:59:58;;;;;;;3.47;3.27;;;16.70;45.00;;;;;;5044728;28;20196;-87
2023/06/04 05:02:23;;;;;;;3.70;3.40;;;16.60;44.90;;;;;;5039975;28;20196;-87
2023/06/04 05:04:49;;;;;;;3.43;3.20;;;16.60;44.40;;;;;;5039037;28;20184;-88
2023/06/04 05:07:15;;;;;;;4.80;3.50;;;16.80;44.00;;;;;;5020472;28;20238;-86
2023/06/04 05:09:41;;;;;;;4.97;3.50;;;16.70;44.00;;;;;;5019889;28;20228;-87
2023/06/04 05:12:06;;;;;;;5.10;3.17;;;16.70;43.70;;;;;;5036694;28;20202;-88
2023/06/04 05:14:35;;;;;;;3.23;2.97;;;16.70;43.70;;;;;;5037311;28;20178;-88
2023/06/04 05:17:03;;;;;;;5.23;3.67;;;16.70;43.40;;;;;;5000169;28;20200;-87
2023/06/04 05:19:28;;;;;;;4.13;3.40;;;16.80;43.40;;;;;;5019394;28;20191;-88
2023/06/04 05:21:55;;;;;;;3.93;3.30;;;16.90;43.40;;;;;;5020812;28;20538;-89
2023/06/04 05:24:21;;;;;;;3.63;3.33;;;16.80;43.40;;;;;;5021580;28;20249;-88
2023/06/04 05:26:48;;;;;;;3.87;3.57;;;16.80;43.70;;;;;;5040284;28;20205;-87
2023/06/04 05:29:14;;;;;;;4.53;3.00;;;16.80;43.10;;;;;;5040970;28;20266;-87
2023/06/04 05:31:39;;;;;;;3.70;3.20;;;16.70;43.40;;;;;;5021991;28;20185;-89
2023/06/04 05:34:05;;;;;;;3.50;3.23;;;16.70;43.80;;;;;;5039919;28;20215;-89
2023/06/04 05:36:31;;;;;;;3.20;3.00;;;16.70;43.60;;;;;;5043532;28;20475;-89
2023/06/04 05:38:57;;;;;;;3.90;3.60;;;16.70;43.40;;;;;;5026516;28;20183;-87
2023/06/04 05:41:27;;;;;;;3.50;3.20;;;16.80;43.50;;;;;;5043213;28;20194;-88
2023/06/04 05:43:53;;;;;;;4.37;3.13;;;16.70;43.80;;;;;;5043146;28;20164;-88
2023/06/04 05:46:18;;;;;;;3.70;3.47;;;16.70;43.90;;;;;;5026279;28;20201;-88
2023/06/04 05:48:45;;;;;;;5.23;3.23;;;16.80;44.20;;;;;;5045535;28;20207;-87
2023/06/04 05:51:13;;;;;;;3.47;3.23;;;16.90;43.30;;;;;;5044633;28;20233;-89
2023/06/04 05:53:38;;;;;;;4.63;3.07;;;16.90;43.70;;;;;;5045550;28;20185;-86
2023/06/04 05:56:04;;;;;;;3.47;3.17;;;17.00;43.60;;;;;;5045984;28;20202;-88
2023/06/04 05:58:32;;;;;;;3.57;3.27;;;16.90;43.20;;;;;;5046101;28;20188;-88
2023/06/04 06:00:57;;;;;;;3.43;3.10;;;17.00;43.40;;;;;;5044436;28;20284;-88
2023/06/04 06:03:23;;;;;;;3.27;2.97;;;17.20;43.70;;;;;;5044937;28;20219;-85
2023/06/04 06:05:49;;;;;;;3.30;3.10;;;17.20;43.20;;;;;;5044502;28;20215;-85
2023/06/04 06:08:14;;;;;;;8.53;3.93;;;17.20;44.00;;;;;;5026572;28;20647;-87
2023/06/04 06:10:40;;;;;;;3.40;3.20;;;17.40;42.10;;;;;;5042068;28;20666;-88
2023/06/04 06:13:06;;;;;;;4.20;3.33;;;17.40;41.40;;;;;;5040944;28;20172;-88
2023/06/04 06:15:32;;;;;;;3.47;3.17;;;17.40;41.70;;;;;;5040107;28;20319;-87
2023/06/04 06:17:58;;;;;;;3.77;3.27;;;17.40;41.70;;;;;;5041248;28;20209;-90
2023/06/04 06:20:25;;;;;;;4.10;3.10;;;17.50;41.80;;;;;;5042027;28;20176;-87
2023/06/04 06:22:51;;;;;;;3.33;3.03;;;17.50;42.20;;;;;;5043081;28;20200;-88
2023/06/04 06:25:17;;;;;;;3.33;3.03;;;17.50;42.10;;;;;;5043983;28;20189;-87
2023/06/04 06:27:42;;;;;;;3.50;3.20;;;17.50;42.20;;;;;;5043370;28;20219;-89
2023/06/04 06:30:09;;;;;;;3.87;3.60;;;17.50;42.20;;;;;;5043004;28;20265;-87
2023/06/04 06:32:35;;;;;;;3.50;3.13;;;17.60;41.40;;;;;;5043978;28;20184;-88
2023/06/04 06:35:01;;;;;;;4.73;3.33;;;17.70;41.20;;;;;;5025752;28;20246;-88
2023/06/04 06:37:26;;;;;;;3.67;3.37;;;17.80;41.70;;;;;;5042925;28;20212;-86
2023/06/04 06:39:52;;;;;;;3.73;3.43;;;17.80;41.80;;;;;;5042912;28;20209;-89
2023/06/04 06:42:19;;;;;;;3.60;3.40;;;17.90;41.00;;;;;;5041520;28;20328;-86
2023/06/04 06:44:45;;;;;;;3.73;3.43;;;18.10;40.70;;;;;;5041771;28;20192;-90
2023/06/04 06:47:13;;;;;;;4.80;3.73;;;18.30;41.20;;;;;;5040575;28;20208;-88
2023/06/04 06:49:39;;;;;;;3.90;3.50;;;18.30;40.20;;;;;;5042801;28;20181;-88
2023/06/04 06:52:05;;;;;;;3.80;3.50;;;18.40;39.80;;;;;;5043955;28;20211;-87
2023/06/04 06:54:31;;;;;;;4.93;3.53;;;18.40;40.00;;;;;;5045337;28;20181;-89
2023/06/04 06:56:57;;;;;;;4.30;3.70;;;18.40;39.90;;;;;;5027404;28;20216;-88
2023/06/04 06:59:23;;;;;;;4.30;3.60;;;18.40;39.80;;;;;;5044536;28;20234;-87
2023/06/04 07:01:49;;;;;;;4.17;3.40;;;18.50;40.00;;;;;;5041969;28;20209;-86
2023/06/04 07:04:14;;;;;;;3.67;3.37;;;18.60;39.90;;;;;;5043524;28;20192;-84
2023/06/04 07:06:40;;;;;;;4.10;3.50;;;18.70;39.90;;;;;;5043661;28;20246;-88
2023/06/04 07:09:05;;;;;;;3.90;3.50;;;18.80;39.80;;;;;;5028036;28;20183;-88
2023/06/04 07:11:31;;;;;;;5.03;3.85;;;19.00;39.90;;;;;;5008727;28;20215;-88
2023/06/04 07:13:57;;;;;;;4.45;4.05;;;19.00;39.70;;;;;;5042813;28;20172;-86
2023/06/04 07:16:23;;;;;;;4.45;4.05;;;19.20;39.40;;;;;;5042813;28;20199;-86
2023/06/04 07:18:49;;;;;;;4.35;3.70;;;19.20;39.20;;;;;;5027043;28;20198;-86
2023/06/04 07:21:16;;;;;;;4.38;3.90;;;19.20;39.00;;;;;;5025919;28;20188;-88
2023/06/04 07:23:41;;;;;;;3.92;3.63;;;19.30;39.00;;;;;;5043509;28;20208;-86
2023/06/04 07:26:09;;;;;;;5.15;3.90;;;19.40;38.70;;;;;;5044145;28;20256;-88
2023/06/04 07:28:35;;;;;;;5.22;4.65;;;19.50;38.80;;;;;;5043654;28;20189;-85
2023/06/04 07:31:00;;;;;;;4.60;4.28;;;19.60;38.20;;;;;;5043321;28;20173;-86
2023/06/04 07:33:26;;;;;;;4.65;4.25;;;19.70;38.00;;;;;;5042964;28;20859;-86
2023/06/04 07:35:52;;;;;;;4.43;4.03;;;19.80;37.30;;;;;;5043246;28;20173;-88
2023/06/04 07:38:18;;;;;;;4.32;4.00;;;19.90;38.10;;;;;;5025448;28;20196;-86
2023/06/04 07:40:45;;;;;;;4.45;4.15;;;20.10;38.10;;;;;;5041760;28;20208;-88
2023/06/04 07:43:11;;;;;;;4.57;4.20;;;20.10;37.90;;;;;;5040369;28;20184;-88
2023/06/04 07:45:36;;;;;;;4.65;4.28;;;20.30;37.10;;;;;;5040865;28;20185;-87
2023/06/04 07:48:02;;;;;;;4.40;4.10;;;20.50;37.60;;;;;;5042021;28;20202;-87
2023/06/04 07:50:28;;;;;;;4.20;3.92;;;20.80;37.00;;;;;;5042879;28;20232;-85
2023/06/04 07:52:54;;;;;;;4.97;4.53;;;21.00;36.50;;;;;;5044932;28;20192;-86
2023/06/04 07:55:19;;;;;;;4.90;4.50;;;20.80;36.70;;;;;;5042217;28;20174;-86
2023/06/04 07:57:45;;;;;;;4.95;4.57;;;20.80;36.80;;;;;;5040333;28;20202;-86
2023/06/04 08:00:12;;;;;;;5.18;4.68;;;21.00;36.70;;;;;;5039699;28;20890;-87
2023/06/04 08:02:38;;;;;;;5.32;4.90;;;21.10;36.40;;;;;;5038118;28;20177;-87
2023/06/04 08:05:04;;;;;;;5.18;4.70;;;21.20;35.40;;;;;;5040496;28;20219;-88
2023/06/04 08:07:30;;;;;;;5.30;4.90;;;21.30;35.60;;;;;;5038366;28;20220;-87
2023/06/04 08:09:56;;;;;;;5.75;5.45;;;21.50;36.40;;;;;;5044875;28;20177;-88
2023/06/04 08:12:22;;;;;;;6.50;6.03;;;21.70;35.90;;;;;;5045997;28;20313;-87
2023/06/04 08:14:50;;;;;;;5.65;5.35;;;21.70;35.60;;;;;;5046879;28;20187;-89
2023/06/04 08:17:16;;;;;;;6.32;5.70;;;21.60;35.80;;;;;;5043938;28;20195;-87
2023/06/04 08:19:41;;;;;;;6.70;6.30;;;21.80;36.10;;;;;;5034314;28;20214;-85
2023/06/04 08:22:09;;;;;;;6.22;5.82;;;21.70;35.40;;;;;;5040493;28;20192;-86
2023/06/04 08:24:34;;;;;;;6.28;5.85;;;21.80;35.90;;;;;;5042162;28;20188;-84
2023/06/04 08:27:00;;;;;;;6.68;6.28;;;22.00;35.30;;;;;;5042151;28;20253;-88
2023/06/04 08:29:26;;;;;;;7.47;6.93;;;22.20;35.20;;;;;;5041453;28;20194;-87
2023/06/04 08:31:51;;;;;;;7.50;7.00;;;22.30;35.40;;;;;;5039921;28;20184;-86
2023/06/04 08:34:17;;;;;;;6.97;6.68;;;22.30;36.00;;;;;;5040308;28;20178;-87
2023/06/04 08:36:43;;;;;;;7.63;7.13;;;22.40;35.30;;;;;;5038535;28;20243;-87
2023/06/04 08:39:09;;;;;;;7.32;6.82;;;22.30;35.80;;;;;;5039989;28;20186;-86
2023/06/04 08:41:43;;;;;;;7.60;7.10;;;22.30;35.40;;;;;;5038981;28;20278;-88
2023/06/04 08:44:09;;;;;;;8.00;7.50;;;22.40;35.60;;;;;;5039204;28;20180;-87
2023/06/04 08:46:41;;;;;;;8.20;7.53;;;22.60;35.10;;;;;;5040513;28;20239;-88
2023/06/04 08:49:07;;;;;;;7.15;6.55;;;22.70;34.70;;;;;;5041029;28;20233;-87
2023/06/04 08:51:36;;;;;;;6.68;6.13;;;22.50;35.20;;;;;;5040170;28;20199;-86
2023/06/04 08:54:04;;;;;;;7.18;6.57;;;22.50;35.40;;;;;;5038291;28;20169;-86
2023/06/04 08:56:32;;;;;;;7.40;6.78;;;22.70;35.10;;;;;;5038133;28;20226;-88
2023/06/04 08:59:02;;;;;;;7.50;7.00;;;22.80;34.80;;;;;;5020155;28;20188;-87
2023/06/04 09:01:28;;;;;;;6.90;6.50;;;22.90;34.90;;;;;;5037154;28;20180;-86
2023/06/04 09:03:55;;;;;;;8.25;7.70;;;23.00;35.10;;;;;;5039215;28;20177;-88
2023/06/04 09:06:26;;;;;;;7.30;6.80;;;23.10;34.00;;;;;;5021072;28;20232;-87
2023/06/04 09:08:56;;;;;;;7.63;7.22;;;23.30;34.00;;;;;;5031801;28;20250;-90
2023/06/04 09:11:23;;;;;;;8.63;8.10;;;23.40;33.90;;;;;;5038727;28;20708;-86
2023/06/04 09:13:50;;;;;;;8.80;8.13;;;23.30;34.20;;;;;;5041711;28;20249;-87
2023/06/04 09:16:16;;;;;;;9.50;8.75;;;23.60;33.90;;;;;;5038030;28;20200;-89
2023/06/04 09:18:43;;;;;;;9.15;8.73;;;23.70;32.90;;;;;;5044132;28;20323;-84
2023/06/04 09:21:09;;;;;;;9.48;8.93;;;23.70;33.20;;;;;;5044530;28;20185;-86
2023/06/04 09:23:45;;;;;;;8.85;8.45;;;23.70;33.00;;;;;;5043346;28;20196;-86
2023/06/04 09:26:12;;;;;;;9.23;8.73;;;23.90;33.20;;;;;;5043092;28;20195;-86
2023/06/04 09:28:45;;;;;;;9.10;8.60;;;23.70;33.40;;;;;;5044969;28;20220;-86
2023/06/04 09:31:15;;;;;;;9.20;8.60;;;23.60;33.70;;;;;;5042320;28;20178;-87
2023/06/04 09:33:50;;;;;;;10.52;9.73;;;23.90;33.60;;;;;;5042906;28;20199;-86
2023/06/04 09:36:16;;;;;;;10.98;10.20;;;24.10;33.10;;;;;;5045831;28;20189;-87
2023/06/04 09:38:42;;;;;;;11.55;10.85;;;24.40;32.00;;;;;;5045610;28;20192;-86
2023/06/04 09:41:19;;;;;;;10.82;10.32;;;24.60;32.00;;;;;;5027672;28;20267;-86
2023/06/04 09:43:45;;;;;;;11.40;10.90;;;24.60;32.00;;;;;;5045961;28;20260;-86
2023/06/04 09:46:15;;;;;;;11.15;10.35;;;24.80;31.80;;;;;;5046525;28;20207;-86
2023/06/04 09:48:42;;;;;;;11.13;10.52;;;25.00;31.50;;;;;;5045592;28;20205;-85
2023/06/04 09:51:08;;;;;;;11.48;10.88;;;25.10;30.60;;;;;;5043230;28;20235;-87
2023/06/04 09:53:34;;;;;;;11.73;11.02;;;25.50;30.00;;;;;;5044572;28;20217;-87
2023/06/04 09:56:01;;;;;;;12.20;11.50;;;25.80;29.00;;;;;;5044969;28;20200;-86
2023/06/04 09:58:28;;;;;;;11.23;10.73;;;26.10;29.40;;;;;;5037397;28;20180;-87
2023/06/04 10:00:58;;;;;;;11.73;11.02;;;26.00;28.80;;;;;;5025905;28;20181;-86
2023/06/04 10:03:30;;;;;;;12.20;11.60;;;26.20;29.00;;;;;;5026758;28;20228;-89
2023/06/04 10:06:00;;;;;;;12.65;12.05;;;26.60;28.70;;;;;;5042798;28;20193;-86
2023/06/04 10:08:27;;;;;;;12.88;12.15;;;26.80;27.50;;;;;;5024119;28;20212;-86
2023/06/04 10:11:01;;;;;;;13.75;13.13;;;26.70;27.70;;;;;;5024579;28;20702;-87
2023/06/04 10:13:30;;;;;;;16.13;15.35;;;27.00;28.20;;;;;;5041282;28;20169;-88
2023/06/04 10:15:59;;;;;;;17.45;16.75;;;27.20;27.20;;;;;;5042166;28;20207;-86
2023/06/04 10:18:27;;;;;;;18.38;17.67;;;27.40;26.60;;;;;;5043443;28;20177;-87
2023/06/04 10:20:56;;;;;;;18.55;17.65;;;27.40;26.60;;;;;;5041559;28;20177;-88
2023/06/04 10:23:22;;;;;;;18.25;17.45;;;27.50;26.50;;;;;;5042410;28;20176;-88
2023/06/04 10:25:52;;;;;;;19.13;18.30;;;27.60;26.60;;;;;;5041929;28;20176;-87
2023/06/04 10:28:22;;;;;;;18.15;17.45;;;27.60;26.10;;;;;;5042255;28;20216;-86
2023/06/04 10:30:50;;;;;;;18.75;17.40;;;27.70;25.90;;;;;;5043104;28;20184;-87
2023/06/04 10:33:20;;;;;;;19.10;18.35;;;27.80;26.20;;;;;;5042065;28;20188;-87
2023/06/04 10:35:47;;;;;;;17.60;16.90;;;27.80;25.80;;;;;;5044637;28;20745;-86
2023/06/04 10:38:14;;;;;;;18.48;17.67;;;27.90;26.10;;;;;;5044153;28;20643;-89
2023/06/04 10:40:40;;;;;;;19.10;17.95;;;28.30;25.90;;;;;;5044806;28;20193;-88
2023/06/04 10:43:17;;;;;;;18.42;17.70;;;28.40;25.70;;;;;;5044663;28;20185;-90
2023/06/04 10:45:44;;;;;;;20.08;19.08;;;28.30;25.90;;;;;;5042969;28;20655;-87
2023/06/04 10:48:11;;;;;;;18.83;17.88;;;28.50;25.50;;;;;;5039786;28;20197;-87
2023/06/04 10:50:53;;;;;;;19.23;18.33;;;28.60;25.30;;;;;;5022973;28;20455;-88
2023/06/04 10:53:19;;;;;;;19.40;18.10;;;28.30;25.20;;;;;;5039161;28;20176;-89
2023/06/04 10:55:46;;;;;;;18.42;17.52;;;28.40;25.30;;;;;;5041425;28;20183;-88
2023/06/04 10:58:12;;;;;;;20.30;19.40;;;28.70;24.70;;;;;;5041442;28;20270;-89
2023/06/04 11:00:45;;;;;;;22.27;21.27;;;28.90;24.40;;;;;;5042605;28;20177;-87
2023/06/04 11:03:11;;;;;;;22.35;21.38;;;29.10;25.10;;;;;;5041540;28;20177;-88
2023/06/04 11:05:38;;;;;;;21.60;20.67;;;29.00;24.40;;;;;;5024701;28;20201;-88
2023/06/04 11:08:05;;;;;;;21.77;20.88;;;28.90;24.40;;;;;;5035222;28;20209;-85
2023/06/04 11:10:37;;;;;;;22.63;21.58;;;29.10;24.80;;;;;;5008110;28;20184;-87
2023/06/04 11:13:03;;;;;;;21.98;20.52;;;28.90;24.10;;;;;;5043339;28;20177;-91
2023/06/04 11:15:42;;;;;;;22.35;21.55;;;28.90;24.80;;;;;;5042135;28;20215;-87
2023/06/04 11:18:13;;;;;;;23.00;22.10;;;29.00;24.40;;;;;;5042557;28;20223;-86
2023/06/04 11:20:38;;;;;;;22.30;21.45;;;29.00;23.80;;;;;;5042710;28;20177;-86
2023/06/04 11:23:05;;;;;;;22.30;21.40;;;29.40;23.80;;;;;;5042908;28;20192;-87
2023/06/04 11:25:32;;;;;;;22.63;21.73;;;29.40;23.10;;;;;;5041475;28;20181;-87
2023/06/04 11:27:59;;;;;;;22.52;21.63;;;29.60;23.10;;;;;;5040388;28;20224;-86
2023/06/04 11:30:25;;;;;;;22.23;21.13;;;29.80;22.80;;;;;;5039714;28;20177;-86
2023/06/04 11:33:03;;;;;;;22.27;21.20;;;29.50;23.00;;;;;;5039219;28;20260;-88
2023/06/04 11:35:30;;;;;;;22.77;21.63;;;29.60;22.80;;;;;;5039908;28;20168;-86
2023/06/04 11:37:57;;;;;;;22.13;21.33;;;29.20;22.80;;;;;;5039564;28;20262;-88
2023/06/04 11:40:24;;;;;;;21.98;21.08;;;29.90;22.80;;;;;;5038733;28;20196;-87
2023/06/04 11:42:50;;;;;;;23.92;22.83;;;29.80;22.30;;;;;;5037307;28;20208;-88
2023/06/04 11:45:18;;;;;;;23.38;22.27;;;29.90;22.30;;;;;;5036885;28;20200;-88
2023/06/04 11:47:53;;;;;;;23.13;21.88;;;30.30;21.80;;;;;;5036551;28;20343;-90
2023/06/04 11:50:20;;;;;;;21.70;20.70;;;30.40;21.40;;;;;;5035935;28;20175;-88
2023/06/04 11:52:47;;;;;;;23.27;22.27;;;30.50;21.90;;;;;;5035973;28;20197;-86
2023/06/04 11:55:13;;;;;;;23.08;22.08;;;30.70;21.40;;;;;;5036587;28;20172;-89
2023/06/04 11:57:40;;;;;;;22.88;21.85;;;30.80;21.40;;;;;;5039452;28;20654;-87
2023/06/04 12:00:10;;;;;;;22.92;21.80;;;30.80;21.10;;;;;;5040501;28;20761;-87
2023/06/04 12:02:37;;;;;;;22.80;21.80;;;30.70;21.00;;;;;;5040615;28;20173;-88
2023/06/04 12:05:18;;;;;;;24.23;23.20;;;31.00;20.90;;;;;;5040596;28;20326;-87
2023/06/04 12:07:44;;;;;;;24.00;23.00;;;31.20;20.70;;;;;;5036159;28;20204;-87
2023/06/04 12:10:14;;;;;;;24.02;22.73;;;31.00;20.80;;;;;;5020433;28;20178;-88
2023/06/04 12:12:40;;;;;;;24.10;23.05;;;31.00;20.80;;;;;;5016550;28;20181;-88
2023/06/04 12:15:07;;;;;;;24.13;23.02;;;31.00;20.70;;;;;;5017107;28;20278;-86
2023/06/04 12:17:33;;;;;;;23.50;22.50;;;30.90;20.00;;;;;;5029967;28;20251;-88
2023/06/04 12:19:59;;;;;;;23.45;22.45;;;30.80;20.20;;;;;;5035290;28;20193;-86
2023/06/04 12:22:26;;;;;;;23.40;22.50;;;30.90;20.70;;;;;;5038525;28;20198;-86
2023/06/04 12:24:53;;;;;;;24.30;23.25;;;31.20;20.60;;;;;;5039136;28;20188;-88
2023/06/04 12:27:21;;;;;;;23.85;22.75;;;31.50;20.00;;;;;;5038997;28;20204;-87
2023/06/04 12:29:58;;;;;;;24.02;22.92;;;31.40;20.60;;;;;;5036986;28;20250;-87
2023/06/04 12:32:23;;;;;;;22.75;21.40;;;31.50;20.60;;;;;;5036540;28;20195;-86
2023/06/04 12:34:49;;;;;;;21.98;20.73;;;31.80;20.30;;;;;;5036570;28;20643;-88
2023/06/04 12:37:15;;;;;;;22.35;21.35;;;31.80;19.60;;;;;;5037773;28;20203;-88
2023/06/04 12:39:40;;;;;;;22.90;21.98;;;31.80;20.10;;;;;;5019098;28;20185;-87
2023/06/04 12:42:08;;;;;;;22.60;21.40;;;31.80;20.40;;;;;;5034763;28;20192;-86